createdAt,value
2023-05-01T00:07:27.751Z,46.67
2023-05-01T00:17:34.463Z,46.69
2023-05-01T00:27:41.376Z,46.66
2023-05-01T00:37:48.381Z,46.59
2023-05-01T00:47:55.898Z,46.56
2023-05-01T00:58:03.619Z,46.55
2023-05-01T01:08:10.518Z,46.53
2023-05-01T01:18:17.779Z,46.51
2023-05-01T01:28:24.685Z,46.52
2023-05-01T01:38:32.074Z,46.46
2023-05-01T01:48:38.682Z,46.44
2023-05-01T01:58:44.855Z,46.43
2023-05-01T02:08:51.568Z,46.42
2023-05-01T02:18:58.773Z,46.41
2023-05-01T02:29:05.595Z,46.37
2023-05-01T02:39:12.878Z,46.28
2023-05-01T02:49:19.921Z,46.25
2023-05-01T02:59:27.250Z,46.28
2023-05-01T03:09:34.361Z,46.26
2023-05-01T03:19:41.282Z,46.27
2023-05-01T03:29:48.443Z,46.23
2023-05-01T03:39:55.492Z,46.19
2023-05-01T03:50:03.474Z,46.13
2023-05-01T04:00:10.241Z,46.10
2023-05-01T04:10:17.087Z,46.10
2023-05-01T04:20:24.566Z,46.07
2023-05-01T04:30:31.209Z,46.05
2023-05-01T04:40:38.381Z,46.00
2023-05-01T04:50:45.717Z,45.94
2023-05-01T05:00:52.625Z,45.87
2023-05-01T05:10:59.745Z,45.79
2023-05-01T05:21:07.318Z,45.78
2023-05-01T05:31:14.666Z,45.79
2023-05-01T05:41:21.761Z,45.76
2023-05-01T05:51:28.726Z,45.69
2023-05-01T06:01:35.587Z,45.93
2023-05-01T06:11:42.846Z,46.50
2023-05-01T06:21:49.740Z,46.93
2023-05-01T06:31:56.920Z,47.37
2023-05-01T06:42:04.026Z,48.01
2023-05-01T06:52:10.832Z,48.70
2023-05-01T07:02:18.338Z,49.34
2023-05-01T07:12:25.642Z,50.04
2023-05-01T07:22:32.961Z,50.68
2023-05-01T07:32:40.314Z,50.94
2023-05-01T07:42:48.009Z,51.02
2023-05-01T07:52:55.012Z,50.89
2023-05-01T08:03:02.486Z,50.54
2023-05-01T08:13:09.209Z,50.24
2023-05-01T08:23:16.518Z,49.84
2023-05-01T08:33:23.526Z,49.80
2023-05-01T08:43:30.176Z,49.62
2023-05-01T08:53:37.652Z,49.06
2023-05-01T09:03:44.595Z,48.83
2023-05-01T09:13:51.823Z,48.74
2023-05-01T09:23:58.791Z,48.64
2023-05-01T09:34:05.924Z,48.67
2023-05-01T09:44:13.104Z,49.00
2023-05-01T09:54:19.983Z,49.64
2023-05-01T10:04:26.828Z,50.12
2023-05-01T10:14:33.870Z,50.64
2023-05-01T10:24:41.341Z,50.95
2023-05-01T10:34:48.724Z,50.86
2023-05-01T10:44:55.512Z,50.30
2023-05-01T10:55:02.774Z,49.81
2023-05-01T11:05:10.058Z,49.40
2023-05-01T11:15:16.888Z,49.23
2023-05-01T11:25:23.326Z,49.12
2023-05-01T11:35:30.418Z,49.07
2023-05-01T11:45:37.316Z,48.97
2023-05-01T11:55:45.245Z,48.80
2023-05-01T12:05:52.664Z,48.67
2023-05-01T12:16:00.168Z,48.58
2023-05-01T12:26:07.411Z,48.54
2023-05-01T12:36:14.900Z,48.55
2023-05-01T12:46:21.918Z,48.58
2023-05-01T12:56:29.473Z,48.59
2023-05-01T13:06:35.452Z,48.58
2023-05-01T13:16:42.534Z,48.64
2023-05-01T13:26:49.625Z,48.64
2023-05-01T13:36:56.887Z,48.66
2023-05-01T13:47:03.790Z,48.74
2023-05-01T13:57:10.861Z,48.67
2023-05-01T14:07:17.984Z,48.68
2023-05-01T14:17:24.853Z,48.69
2023-05-01T14:27:32.149Z,48.64
2023-05-01T14:37:39.230Z,48.69
2023-05-01T14:47:45.961Z,48.65
2023-05-01T14:57:53.372Z,48.61
2023-05-01T15:08:00.215Z,48.58
2023-05-01T15:18:07.092Z,48.57
2023-05-01T15:28:14.979Z,48.54
2023-05-01T15:38:22.485Z,48.54
2023-05-01T15:48:29.044Z,48.53
2023-05-01T15:58:35.176Z,48.51
2023-05-01T16:08:42.517Z,48.51
2023-05-01T16:18:49.822Z,48.49
2023-05-01T16:28:56.417Z,48.50
2023-05-01T16:39:03.659Z,48.47
2023-05-01T16:49:10.518Z,48.45
2023-05-01T16:59:17.310Z,48.46
2023-05-01T17:09:24.824Z,48.44
2023-05-01T17:19:32.156Z,48.45
2023-05-01T17:29:38.845Z,48.45
2023-05-01T17:39:46.382Z,48.43
2023-05-01T17:49:53.001Z,48.42
2023-05-01T18:00:00.571Z,48.61
2023-05-01T18:10:07.869Z,48.45
2023-05-01T18:20:15.054Z,48.36
2023-05-01T18:30:22.093Z,48.32
2023-05-01T18:40:29.319Z,48.28
2023-05-01T18:50:36.023Z,48.27
2023-05-01T19:00:42.076Z,48.27
2023-05-01T19:10:49.573Z,48.25
2023-05-01T19:20:56.688Z,48.24
2023-05-01T19:31:04.043Z,48.23
2023-05-01T19:41:11.166Z,48.23
2023-05-01T19:51:18.208Z,48.25
2023-05-01T20:01:25.600Z,48.27
2023-05-01T20:11:32.375Z,48.26
2023-05-01T20:21:39.499Z,48.26
2023-05-01T20:31:46.684Z,48.26
2023-05-01T20:41:53.919Z,48.27
2023-05-01T20:52:00.910Z,48.29
2023-05-01T21:02:08.184Z,48.30
2023-05-01T21:12:15.624Z,48.28
2023-05-01T21:22:22.778Z,48.28
2023-05-01T21:32:29.818Z,48.28
2023-05-01T21:42:36.693Z,48.31
2023-05-01T21:52:43.737Z,48.32
2023-05-01T22:02:51.419Z,48.32
2023-05-01T22:12:58.067Z,48.32
2023-05-01T22:23:05.052Z,48.28
2023-05-01T22:33:12.482Z,48.28
2023-05-01T22:43:19.045Z,48.28
2023-05-01T22:53:26.176Z,48.25
2023-05-01T23:03:34.641Z,48.23
2023-05-01T23:13:44.014Z,48.18
2023-05-01T23:23:50.200Z,48.15
2023-05-01T23:33:57.754Z,48.10
2023-05-01T23:44:04.307Z,48.08
2023-05-01T23:54:10.321Z,48.05
